createdAt,value
2022-10-06T00:01:13.751Z,101889.34
2022-10-06T00:03:42.169Z,101897.38
2022-10-06T00:06:12.412Z,101899.97
2022-10-06T00:08:41.820Z,101886.84
2022-10-06T00:11:12.699Z,101880.78
2022-10-06T00:13:41.283Z,101884.31
2022-10-06T00:16:11.521Z,101890.53
2022-10-06T00:18:39.835Z,101893.19
2022-10-06T00:21:07.311Z,101902.94
2022-10-06T00:23:34.853Z,101892.47
2022-10-06T00:26:02.423Z,101901.31
2022-10-06T00:28:30.383Z,101899.59
2022-10-06T00:31:01.780Z,101901.53
2022-10-06T00:33:29.472Z,101900.47
2022-10-06T00:36:01.039Z,101897.03
2022-10-06T00:38:29.412Z,101898.13
2022-10-06T00:40:57.384Z,101897.22
2022-10-06T00:43:57.019Z,101886.41
2022-10-06T00:46:34.229Z,101883.09
2022-10-06T00:49:07.824Z,101885.75
2022-10-06T00:51:39.559Z,101875.13
2022-10-06T00:54:09.191Z,101880.41
2022-10-06T00:56:39.908Z,101864.50
2022-10-06T00:59:18.927Z,101866.47
2022-10-06T01:01:54.871Z,101867.31
2022-10-06T01:04:24.299Z,101867.31
2022-10-06T01:06:55.467Z,101861.28
2022-10-06T01:09:24.224Z,101870.97
2022-10-06T01:11:57.705Z,101864.75
2022-10-06T01:14:26.345Z,101858.69
2022-10-06T01:16:59.875Z,101859.69
2022-10-06T01:19:52.090Z,101858.16
2022-10-06T01:22:36.529Z,101857.38
2022-10-06T01:25:08.869Z,101857.41
2022-10-06T01:27:39.252Z,101861.06
2022-10-06T01:30:14.363Z,101867.34
2022-10-06T01:32:42.320Z,101871.03
2022-10-06T01:35:11.515Z,101871.78
2022-10-06T01:37:40.417Z,101860.38
2022-10-06T01:40:09.746Z,101859.72
2022-10-06T01:42:38.158Z,101862.44
2022-10-06T01:45:06.833Z,101852.56
2022-10-06T01:47:35.056Z,101842.91
2022-10-06T01:50:04.580Z,101853.56
2022-10-06T01:52:32.393Z,101851.69
2022-10-06T01:54:59.881Z,101855.22
2022-10-06T01:57:27.525Z,101860.34
2022-10-06T01:59:55.239Z,101862.16
2022-10-06T02:02:24.285Z,101866.53
2022-10-06T02:04:52.395Z,101870.06
2022-10-06T02:07:20.344Z,101870.25
2022-10-06T02:09:48.200Z,101877.66
2022-10-06T02:12:17.381Z,101872.50
2022-10-06T02:14:44.927Z,101876.88
2022-10-06T02:17:12.814Z,101865.34
2022-10-06T02:19:40.544Z,101861.75
2022-10-06T02:22:08.171Z,101883.09
2022-10-06T02:24:38.440Z,101883.09
2022-10-06T02:27:07.015Z,101889.31
2022-10-06T02:29:35.342Z,101886.78
2022-10-06T02:32:03.913Z,101892.56
2022-10-06T02:34:31.504Z,101895.03
2022-10-06T02:36:58.972Z,101887.22
2022-10-06T02:39:26.604Z,101885.41
2022-10-06T02:41:54.088Z,101889.78
2022-10-06T02:44:25.034Z,101891.66
2022-10-06T02:46:54.438Z,101897.53
2022-10-06T02:49:22.052Z,101907.94
2022-10-06T02:51:50.261Z,101904.19
2022-10-06T02:54:17.881Z,101899.06
2022-10-06T02:56:46.624Z,101904.38
2022-10-06T02:59:14.055Z,101906.38
2022-10-06T03:01:43.216Z,101907.22
2022-10-06T03:04:15.618Z,101914.22
2022-10-06T03:06:43.700Z,101909.78
2022-10-06T03:09:22.856Z,101905.00
2022-10-06T03:11:51.691Z,101901.69
2022-10-06T03:14:28.860Z,101912.16
2022-10-06T03:16:57.486Z,101912.16
2022-10-06T03:19:27.569Z,101908.47
2022-10-06T03:21:55.378Z,101915.47
2022-10-06T03:24:29.335Z,101913.50
2022-10-06T03:26:59.594Z,101912.84
2022-10-06T03:29:29.668Z,101909.38
2022-10-06T03:31:58.598Z,101915.59
2022-10-06T03:34:26.694Z,101917.31
2022-10-06T03:36:58.303Z,101920.09
2022-10-06T03:39:27.655Z,101921.00
2022-10-06T03:41:55.219Z,101925.44
2022-10-06T03:44:23.649Z,101925.69
2022-10-06T03:46:52.370Z,101926.59
2022-10-06T03:49:20.328Z,101926.41
2022-10-06T03:51:48.847Z,101933.56
2022-10-06T03:54:21.509Z,101925.75
2022-10-06T03:56:50.896Z,101927.69
2022-10-06T03:59:19.655Z,101933.91
2022-10-06T04:01:48.821Z,101931.13
2022-10-06T04:04:38.175Z,101930.22
2022-10-06T04:07:10.190Z,101930.44
2022-10-06T04:09:37.985Z,101931.84
2022-10-06T04:12:05.581Z,101930.69
2022-10-06T04:14:37.336Z,101930.06
2022-10-06T04:17:06.548Z,101935.28
2022-10-06T04:19:42.097Z,101927.25
2022-10-06T04:22:09.733Z,101928.03
2022-10-06T04:24:37.725Z,101921.50
2022-10-06T04:27:23.884Z,101921.50
2022-10-06T04:29:57.984Z,101920.41
2022-10-06T04:32:29.715Z,101917.69
2022-10-06T04:34:57.513Z,101918.38
2022-10-06T04:37:28.103Z,101908.66
2022-10-06T04:39:56.244Z,101902.19
2022-10-06T04:42:24.137Z,101903.59
2022-10-06T04:44:51.595Z,101901.59
2022-10-06T04:47:19.064Z,101895.44
2022-10-06T04:49:47.636Z,101889.81
2022-10-06T04:52:17.260Z,101890.44
2022-10-06T04:54:45.174Z,101890.16
2022-10-06T04:57:13.310Z,101887.16
2022-10-06T05:00:05.320Z,101889.59
2022-10-06T05:02:37.207Z,101879.59
2022-10-06T05:05:08.019Z,101881.31
2022-10-06T05:07:37.193Z,101889.78
2022-10-06T05:10:05.021Z,101890.47
2022-10-06T05:12:32.788Z,101890.56
2022-10-06T05:15:04.160Z,101882.34
2022-10-06T05:17:32.169Z,101878.69
2022-10-06T05:20:02.797Z,101883.94
2022-10-06T05:22:30.629Z,101876.25
2022-10-06T05:24:58.710Z,101883.13
2022-10-06T05:27:26.568Z,101884.22
2022-10-06T05:29:54.112Z,101880.69
2022-10-06T05:32:21.839Z,101889.63
2022-10-06T05:34:49.424Z,101894.81
2022-10-06T05:37:16.925Z,101896.13
2022-10-06T05:39:45.092Z,101894.13
2022-10-06T05:42:12.914Z,101904.59
2022-10-06T05:44:41.713Z,101902.41
2022-10-06T05:47:11.501Z,101901.28
2022-10-06T05:49:39.114Z,101905.78
2022-10-06T05:52:07.260Z,101908.38
2022-10-06T05:54:36.759Z,101902.84
2022-10-06T05:57:06.038Z,101902.31
2022-10-06T05:59:34.792Z,101901.78
2022-10-06T06:02:05.475Z,101898.56
2022-10-06T06:04:41.018Z,101902.56
2022-10-06T06:07:09.571Z,101899.75
2022-10-06T06:09:38.670Z,101899.81
2022-10-06T06:12:06.371Z,101903.13
2022-10-06T06:15:28.503Z,101904.84
2022-10-06T06:18:06.105Z,101900.50
2022-10-06T06:20:34.293Z,101899.53
2022-10-06T06:23:01.934Z,101901.00
2022-10-06T06:25:30.731Z,101888.13
2022-10-06T06:27:59.456Z,101889.47
2022-10-06T06:30:27.288Z,101884.41
2022-10-06T06:33:00.219Z,101884.66
2022-10-06T06:35:28.604Z,101891.84
2022-10-06T06:37:56.361Z,101885.28
2022-10-06T06:40:25.440Z,101892.69
2022-10-06T06:42:54.027Z,101894.41
2022-10-06T06:45:53.734Z,101894.59
2022-10-06T06:48:33.702Z,101903.34
2022-10-06T06:51:01.745Z,101902.22
2022-10-06T06:53:31.972Z,101896.88
2022-10-06T06:56:01.357Z,101905.03
2022-10-06T06:58:32.806Z,101902.50
2022-10-06T07:01:14.842Z,101904.47
2022-10-06T07:04:03.639Z,101905.75
2022-10-06T07:06:37.685Z,101904.25
2022-10-06T07:09:05.659Z,101906.66
2022-10-06T07:11:37.438Z,101905.88
2022-10-06T07:14:12.765Z,101896.81
2022-10-06T07:17:02.331Z,101893.03
2022-10-06T07:19:48.865Z,101897.50
2022-10-06T07:22:38.755Z,101885.88
2022-10-06T07:25:26.832Z,101896.84
2022-10-06T07:28:06.884Z,101891.41
2022-10-06T07:30:41.355Z,101894.84
2022-10-06T07:33:20.971Z,101883.34
2022-10-06T07:35:49.839Z,101892.28
2022-10-06T07:38:25.881Z,101873.66
2022-10-06T07:41:17.887Z,101875.81
2022-10-06T07:43:46.987Z,101882.81
2022-10-06T07:46:16.162Z,101876.63
2022-10-06T07:48:49.268Z,101875.75
2022-10-06T07:51:19.436Z,101876.56
2022-10-06T07:53:50.401Z,101874.28
2022-10-06T07:56:27.045Z,101870.25
2022-10-06T07:58:58.749Z,101869.03
2022-10-06T08:01:27.559Z,101864.81
2022-10-06T08:03:55.111Z,101869.41
2022-10-06T08:06:23.804Z,101868.50
2022-10-06T08:08:53.394Z,101867.53
2022-10-06T08:11:22.857Z,101865.78
2022-10-06T08:13:52.009Z,101857.72
2022-10-06T08:16:22.629Z,101864.41
2022-10-06T08:18:54.858Z,101865.59
2022-10-06T08:21:31.399Z,101866.09
2022-10-06T08:23:59.507Z,101869.13
2022-10-06T08:26:31.256Z,101862.41
2022-10-06T08:29:03.113Z,101865.09
2022-10-06T08:31:32.002Z,101860.25
2022-10-06T08:33:59.786Z,101856.72
2022-10-06T08:36:31.339Z,101854.22
2022-10-06T08:39:00.632Z,101846.41
2022-10-06T08:41:28.208Z,101854.63
2022-10-06T08:44:18.602Z,101847.53
2022-10-06T08:46:55.143Z,101842.72
2022-10-06T08:49:27.372Z,101845.72
2022-10-06T08:52:22.478Z,101839.69
2022-10-06T08:55:14.969Z,101844.66
2022-10-06T08:58:16.285Z,101849.50
2022-10-06T09:00:44.604Z,101852.00
2022-10-06T09:03:24.170Z,101848.44
2022-10-06T09:06:03.876Z,101845.34
2022-10-06T09:08:50.809Z,101858.94
2022-10-06T09:11:43.284Z,101836.53
2022-10-06T09:14:20.437Z,101843.19
2022-10-06T09:16:53.773Z,101842.78
2022-10-06T09:19:35.924Z,101835.06
2022-10-06T09:22:06.888Z,101842.19
2022-10-06T09:24:41.404Z,101840.56
2022-10-06T09:27:33.499Z,101829.47
2022-10-06T09:30:02.625Z,101845.56
2022-10-06T09:32:31.477Z,101840.22
2022-10-06T09:35:04.680Z,101837.16
2022-10-06T09:38:07.867Z,101846.53
2022-10-06T09:40:39.411Z,101839.94
2022-10-06T09:43:27.570Z,101843.19
2022-10-06T09:45:56.662Z,101820.25
2022-10-06T09:48:26.580Z,101835.03
2022-10-06T09:51:09.162Z,101831.50
2022-10-06T09:53:39.193Z,101827.13
2022-10-06T09:56:19.889Z,101828.25
2022-10-06T09:58:58.641Z,101820.41
2022-10-06T10:01:31.884Z,101821.19
2022-10-06T10:04:20.461Z,101825.56
2022-10-06T10:06:50.378Z,101823.84
2022-10-06T10:09:22.419Z,101821.84
2022-10-06T10:12:24.595Z,101820.72
2022-10-06T10:15:24.208Z,101821.78
2022-10-06T10:17:55.526Z,101823.47
2022-10-06T10:20:28.219Z,101810.25
2022-10-06T10:22:59.585Z,101816.25
2022-10-06T10:25:40.578Z,101810.81
2022-10-06T10:28:11.236Z,101807.09
2022-10-06T10:31:13.636Z,101806.56
2022-10-06T10:34:35.006Z,101813.50
2022-10-06T10:37:25.902Z,101809.66
2022-10-06T10:40:03.038Z,101803.88
2022-10-06T10:42:46.060Z,101798.84
2022-10-06T10:45:27.200Z,101793.91
2022-10-06T10:47:56.783Z,101801.09
2022-10-06T10:50:42.821Z,101800.03
2022-10-06T10:53:44.167Z,101797.56
2022-10-06T10:56:16.530Z,101795.13
2022-10-06T10:58:47.951Z,101804.63
2022-10-06T11:01:38.862Z,101793.16
2022-10-06T11:04:11.662Z,101798.00
2022-10-06T11:06:48.260Z,101787.00
2022-10-06T11:09:44.628Z,101794.69
2022-10-06T11:12:41.482Z,101786.00
2022-10-06T11:15:14.896Z,101793.63
2022-10-06T11:17:47.242Z,101788.88
2022-10-06T11:20:20.828Z,101780.19
2022-10-06T11:22:58.756Z,101791.56
2022-10-06T11:25:43.646Z,101785.25
2022-10-06T11:28:26.836Z,101787.16
2022-10-06T11:31:23.181Z,101777.31
2022-10-06T11:33:55.908Z,101777.72
2022-10-06T11:36:23.876Z,101778.34
2022-10-06T11:39:25.432Z,101770.22
2022-10-06T11:42:02.821Z,101778.25
2022-10-06T11:44:44.649Z,101770.63
2022-10-06T11:47:35.568Z,101771.56
2022-10-06T11:50:24.049Z,101759.13
2022-10-06T11:52:53.063Z,101765.19
2022-10-06T11:55:24.074Z,101761.31
2022-10-06T11:58:37.318Z,101760.00
2022-10-06T12:01:02.294Z,101769.53
2022-10-06T12:03:31.198Z,101772.38
2022-10-06T12:05:59.812Z,101766.84
2022-10-06T12:08:40.858Z,101767.69
2022-10-06T12:11:43.060Z,101768.19
2022-10-06T12:18:00.800Z,101761.00
2022-10-06T12:20:38.610Z,101752.81
2022-10-06T12:23:09.159Z,101764.53
2022-10-06T12:25:47.340Z,101756.28
2022-10-06T12:28:44.523Z,101754.16
2022-10-06T12:31:18.319Z,101750.69
2022-10-06T12:33:46.921Z,101747.44
2022-10-06T12:36:24.208Z,101747.63
2022-10-06T12:39:05.330Z,101736.47
2022-10-06T12:42:19.868Z,101736.63
2022-10-06T12:44:50.030Z,101736.97
2022-10-06T12:47:25.747Z,101733.66
2022-10-06T12:50:20.773Z,101739.28
2022-10-06T12:52:59.079Z,101733.44
2022-10-06T12:55:49.115Z,101726.16
2022-10-06T12:58:32.536Z,101736.09
2022-10-06T13:01:13.059Z,101732.47
2022-10-06T13:03:48.388Z,101728.06
2022-10-06T13:06:21.429Z,101726.88
2022-10-06T13:09:06.092Z,101729.09
2022-10-06T13:11:35.485Z,101727.84
2022-10-06T13:14:29.151Z,101731.25
2022-10-06T13:16:59.776Z,101723.69
2022-10-06T13:19:31.446Z,101716.84
2022-10-06T13:22:02.920Z,101710.72
2022-10-06T13:24:30.640Z,101718.56
2022-10-06T13:26:58.133Z,101713.47
2022-10-06T13:29:26.505Z,101707.25
2022-10-06T13:31:55.668Z,101707.78
2022-10-06T13:34:32.894Z,101711.53
2022-10-06T13:37:01.527Z,101716.28
2022-10-06T13:39:32.986Z,101702.59
2022-10-06T13:42:10.270Z,101706.13
2022-10-06T13:44:42.378Z,101704.41
2022-10-06T13:47:19.363Z,101702.69
2022-10-06T13:50:18.808Z,101703.66
2022-10-06T13:52:48.932Z,101701.34
2022-10-06T13:55:27.712Z,101692.97
2022-10-06T13:58:03.508Z,101700.94
2022-10-06T14:00:57.857Z,101702.25
2022-10-06T14:06:15.605Z,101701.16
2022-10-06T14:08:49.455Z,101695.91
2022-10-06T14:11:24.841Z,101697.22
2022-10-06T14:13:56.243Z,101696.22
2022-10-06T14:16:25.991Z,101705.56
2022-10-06T14:21:32.055Z,101700.03
2022-10-06T14:24:04.859Z,101704.88
2022-10-06T14:26:37.607Z,101703.72
2022-10-06T14:29:06.355Z,101704.97
2022-10-06T14:31:34.800Z,101705.41
2022-10-06T14:34:03.700Z,101714.78
2022-10-06T14:36:37.037Z,101709.50
2022-10-06T14:39:06.767Z,101703.72
2022-10-06T14:41:34.829Z,101709.63
2022-10-06T14:44:09.128Z,101714.56
2022-10-06T14:46:37.989Z,101715.22
2022-10-06T14:49:07.697Z,101710.50
2022-10-06T14:51:37.230Z,101712.09
2022-10-06T14:54:07.477Z,101714.16
2022-10-06T14:56:39.117Z,101706.63
2022-10-06T14:59:09.402Z,101706.97
2022-10-06T15:01:40.396Z,101716.38
2022-10-06T15:04:12.061Z,101712.19
2022-10-06T15:06:58.305Z,101715.81
2022-10-06T15:09:26.512Z,101720.91
2022-10-06T15:11:55.160Z,101723.31
2022-10-06T15:14:24.509Z,101717.41
2022-10-06T15:16:52.397Z,101727.38
2022-10-06T15:19:20.975Z,101731.63
2022-10-06T15:21:48.769Z,101733.91
2022-10-06T15:24:18.485Z,101732.25
2022-10-06T15:27:05.919Z,101736.78
2022-10-06T15:29:38.866Z,101739.84
2022-10-06T15:32:06.886Z,101740.16
2022-10-06T15:34:37.709Z,101739.78
2022-10-06T15:37:06.311Z,101741.41
2022-10-06T15:39:37.509Z,101741.03
2022-10-06T15:42:06.853Z,101742.25
2022-10-06T15:44:35.304Z,101749.47
2022-10-06T15:47:05.305Z,101750.06
2022-10-06T15:49:38.217Z,101744.25
2022-10-06T15:52:06.822Z,101752.34
2022-10-06T15:54:40.862Z,101754.34
2022-10-06T15:57:12.167Z,101758.06
2022-10-06T15:59:41.552Z,101751.41
2022-10-06T16:02:17.382Z,101758.44
2022-10-06T16:05:14.042Z,101763.63
2022-10-06T16:07:41.475Z,101757.38
2022-10-06T16:10:13.598Z,101759.13
2022-10-06T16:12:41.876Z,101759.41
2022-10-06T16:15:09.842Z,101763.41
2022-10-06T16:17:38.807Z,101759.69
2022-10-06T16:20:07.098Z,101755.19
2022-10-06T16:22:35.623Z,101760.53
2022-10-06T16:25:03.514Z,101758.81
2022-10-06T16:27:33.642Z,101760.03
2022-10-06T16:30:01.737Z,101755.78
2022-10-06T16:32:29.302Z,101752.16
2022-10-06T16:34:57.528Z,101757.47
2022-10-06T16:37:24.968Z,101751.56
2022-10-06T16:39:52.952Z,101753.84
2022-10-06T16:42:20.488Z,101759.97
2022-10-06T16:44:47.960Z,101750.44
2022-10-06T16:47:15.667Z,101747.00
2022-10-06T16:49:43.126Z,101752.63
2022-10-06T16:52:12.501Z,101757.47
2022-10-06T16:54:40.106Z,101746.88
2022-10-06T16:57:07.555Z,101755.84
2022-10-06T16:59:34.973Z,101752.22
2022-10-06T17:02:02.364Z,101751.16
2022-10-06T17:04:30.171Z,101748.59
2022-10-06T17:06:57.709Z,101755.16
2022-10-06T17:09:29.213Z,101758.97
2022-10-06T17:12:01.626Z,101756.38
2022-10-06T17:14:32.185Z,101755.47
2022-10-06T17:16:59.971Z,101748.38
2022-10-06T17:19:29.656Z,101750.28
2022-10-06T17:21:59.779Z,101755.63
2022-10-06T17:24:29.650Z,101759.50
2022-10-06T17:26:59.084Z,101768.47
2022-10-06T17:29:27.296Z,101762.19
2022-10-06T17:31:59.274Z,101767.72
2022-10-06T17:34:31.697Z,101767.88
2022-10-06T17:37:00.933Z,101764.63
2022-10-06T17:39:28.600Z,101760.31
2022-10-06T17:41:56.800Z,101755.94
2022-10-06T17:44:28.864Z,101766.72
2022-10-06T17:46:58.442Z,101768.63
2022-10-06T17:49:26.972Z,101768.78
2022-10-06T17:51:55.679Z,101772.41
2022-10-06T17:54:25.187Z,101771.63
2022-10-06T17:56:56.380Z,101774.47
2022-10-06T17:59:28.522Z,101775.91
2022-10-06T18:01:58.740Z,101772.59
2022-10-06T18:04:27.241Z,101768.78
2022-10-06T18:06:55.569Z,101770.50
2022-10-06T18:09:24.392Z,101772.13
2022-10-06T18:11:56.464Z,101765.09
2022-10-06T18:14:27.123Z,101772.03
2022-10-06T18:17:00.925Z,101766.97
2022-10-06T18:19:31.388Z,101768.88
2022-10-06T18:22:10.795Z,101766.09
2022-10-06T18:24:39.938Z,101772.13
2022-10-06T18:27:08.419Z,101770.50
2022-10-06T18:29:38.812Z,101773.66
2022-10-06T18:37:44.746Z,101776.63
2022-10-06T18:40:14.754Z,101772.78
2022-10-06T18:42:42.243Z,101773.16
2022-10-06T18:45:30.424Z,101775.75
2022-10-06T18:48:18.436Z,101771.44
2022-10-06T18:50:47.170Z,101771.09
2022-10-06T18:53:14.666Z,101779.28
2022-10-06T18:55:42.100Z,101783.81
2022-10-06T18:58:09.554Z,101788.28
2022-10-06T19:00:37.038Z,101779.34
2022-10-06T19:03:04.765Z,101778.31
2022-10-06T19:05:32.718Z,101779.53
2022-10-06T19:08:00.453Z,101780.59
2022-10-06T19:10:29.855Z,101785.97
2022-10-06T19:12:58.353Z,101780.91
2022-10-06T19:15:26.360Z,101777.38
2022-10-06T19:17:53.865Z,101787.88
2022-10-06T19:20:23.330Z,101773.84
2022-10-06T19:22:50.764Z,101777.28
2022-10-06T19:25:19.196Z,101784.16
2022-10-06T19:27:47.124Z,101780.59
2022-10-06T19:30:14.856Z,101778.84
2022-10-06T19:32:42.563Z,101774.41
2022-10-06T19:35:10.812Z,101786.59
2022-10-06T19:37:39.217Z,101782.34
2022-10-06T19:40:08.836Z,101782.50
2022-10-06T19:42:48.853Z,101784.81
2022-10-06T19:45:20.712Z,101772.44
2022-10-06T19:47:48.754Z,101776.06
2022-10-06T19:50:17.335Z,101777.06
2022-10-06T19:52:45.413Z,101774.88
2022-10-06T19:55:13.044Z,101787.63
2022-10-06T19:57:41.373Z,101784.09
2022-10-06T20:00:10.336Z,101776.59
2022-10-06T20:02:43.455Z,101794.69
2022-10-06T20:05:16.765Z,101788.84
2022-10-06T20:07:46.776Z,101792.47
2022-10-06T20:10:15.227Z,101789.13
2022-10-06T20:12:43.070Z,101787.50
2022-10-06T20:15:12.953Z,101787.84
2022-10-06T20:17:42.375Z,101794.47
2022-10-06T20:20:10.245Z,101792.97
2022-10-06T20:22:37.717Z,101790.38
2022-10-06T20:25:07.199Z,101798.28
2022-10-06T20:27:35.471Z,101796.03
2022-10-06T20:30:03.883Z,101795.88
2022-10-06T20:32:32.085Z,101798.59
2022-10-06T20:35:00.156Z,101796.03
2022-10-06T20:37:27.964Z,101792.53
2022-10-06T20:40:13.949Z,101794.56
2022-10-06T20:42:44.931Z,101805.41
2022-10-06T20:45:12.552Z,101796.53
2022-10-06T20:47:40.121Z,101805.59
2022-10-06T20:50:08.166Z,101801.47
2022-10-06T20:52:36.926Z,101797.06
2022-10-06T20:55:06.324Z,101798.28
2022-10-06T20:57:34.123Z,101799.31
2022-10-06T21:00:01.663Z,101798.63
2022-10-06T21:02:32.058Z,101798.81
2022-10-06T21:05:00.097Z,101792.09
2022-10-06T21:07:28.750Z,101792.97
2022-10-06T21:09:57.866Z,101794.44
2022-10-06T21:12:25.539Z,101787.63
2022-10-06T21:14:57.004Z,101781.25
2022-10-06T21:17:24.685Z,101788.84
2022-10-06T21:19:52.279Z,101790.22
2022-10-06T21:22:19.886Z,101787.69
2022-10-06T21:24:48.338Z,101787.78
2022-10-06T21:27:18.508Z,101791.56
2022-10-06T21:29:47.855Z,101791.41
2022-10-06T21:32:15.577Z,101787.63
2022-10-06T21:34:43.077Z,101788.41
2022-10-06T21:37:13.740Z,101780.22
2022-10-06T21:39:42.253Z,101789.16
2022-10-06T21:42:09.878Z,101776.81
2022-10-06T21:44:37.574Z,101780.06
2022-10-06T21:47:05.217Z,101782.81
2022-10-06T21:49:33.563Z,101782.03
2022-10-06T21:52:04.902Z,101779.22
2022-10-06T21:54:33.160Z,101782.41
2022-10-06T21:57:00.797Z,101780.66
2022-10-06T21:59:28.475Z,101785.75
2022-10-06T22:01:58.134Z,101778.69
2022-10-06T22:04:26.530Z,101773.38
2022-10-06T22:06:54.031Z,101781.53
2022-10-06T22:09:22.182Z,101776.81
2022-10-06T22:11:50.088Z,101772.66
2022-10-06T22:14:19.485Z,101775.28
2022-10-06T22:16:49.370Z,101766.66
2022-10-06T22:19:18.029Z,101774.47
2022-10-06T22:21:48.605Z,101769.44
2022-10-06T22:24:19.161Z,101768.06
2022-10-06T22:26:47.763Z,101776.19
2022-10-06T22:29:17.920Z,101778.69
2022-10-06T22:31:47.087Z,101775.44
2022-10-06T22:34:18.538Z,101770.25
2022-10-06T22:36:46.398Z,101771.47
2022-10-06T22:39:16.923Z,101774.91
2022-10-06T22:41:45.468Z,101768.88
2022-10-06T22:44:13.033Z,101771.81
2022-10-06T22:46:43.019Z,101776.28
2022-10-06T22:49:10.774Z,101781.16
2022-10-06T22:51:38.355Z,101780.53
2022-10-06T22:54:05.998Z,101780.53
2022-10-06T22:56:35.031Z,101780.88
2022-10-06T22:59:02.666Z,101783.69
2022-10-06T23:01:30.778Z,101772.44
2022-10-06T23:03:58.532Z,101779.63
2022-10-06T23:06:27.191Z,101775.25
2022-10-06T23:08:56.141Z,101777.91
2022-10-06T23:11:23.955Z,101776.53
2022-10-06T23:13:53.054Z,101780.19
2022-10-06T23:16:21.794Z,101779.66
2022-10-06T23:18:49.694Z,101777.31
2022-10-06T23:21:21.817Z,101784.25
2022-10-06T23:23:59.287Z,101773.69
2022-10-06T23:26:29.140Z,101777.53
2022-10-06T23:28:59.046Z,101774.19
2022-10-06T23:31:27.154Z,101778.78
2022-10-06T23:33:55.264Z,101778.72
2022-10-06T23:36:23.174Z,101772.78
2022-10-06T23:38:50.947Z,101764.28
2022-10-06T23:41:19.391Z,101774.66
2022-10-06T23:43:46.958Z,101772.94
2022-10-06T23:46:14.826Z,101759.03
2022-10-06T23:48:43.054Z,101763.56
2022-10-06T23:51:13.367Z,101764.66
2022-10-06T23:53:41.266Z,101750.56
2022-10-06T23:56:09.595Z,101756.06
2022-10-06T23:58:37.182Z,101758.63
